Time;durP1;ratioP1;P1;durP2;ratioP2;P2;SDS_P1;SDS_P2;PMS_P1;PMS_P2;Temp;Humidity;BMP_temperature;BMP_pressure;BME280_temperature;BME280_humidity;BME280_pressure;Samples;Min_cycle;Max_cycle;Signal;HPM_P1;HPM_P2
2022/05/05 00:01:14;;;;;;;3.50;0.98;;;4.80;99.90;;;;;;5050180;28;20404;-71
2022/05/05 00:03:41;;;;;;;4.22;1.38;;;4.90;99.90;;;;;;5048943;28;20560;-71
2022/05/05 00:06:08;;;;;;;3.67;1.30;;;4.90;99.90;;;;;;5030451;28;20522;-73
2022/05/05 00:08:36;;;;;;;2.20;0.70;;;4.90;99.90;;;;;;5030871;28;20456;-71
2022/05/05 00:16:35;;;;;;;2.60;1.10;;;4.90;99.90;;;;;;5033476;28;20084;-70
2022/05/05 00:19:04;;;;;;;3.45;1.13;;;5.00;99.90;;;;;;5050398;28;20037;-71
2022/05/05 00:21:31;;;;;;;2.58;1.70;;;5.00;99.90;;;;;;5053733;28;20360;-70
2022/05/05 00:23:59;;;;;;;3.63;0.95;;;5.00;99.90;;;;;;5052109;28;20049;-70
2022/05/05 00:26:26;;;;;;;1.90;0.85;;;5.00;99.90;;;;;;5035756;28;20136;-70
2022/05/05 00:28:53;;;;;;;4.32;1.00;;;5.00;99.90;;;;;;5042950;28;20139;-71
2022/05/05 00:31:20;;;;;;;3.97;0.90;;;5.00;99.90;;;;;;5032130;28;20050;-71
2022/05/05 00:33:49;;;;;;;2.80;0.80;;;5.00;99.90;;;;;;5044549;28;20136;-72
2022/05/05 00:36:17;;;;;;;2.47;0.90;;;5.00;99.90;;;;;;5043559;28;20525;-71
2022/05/05 00:38:44;;;;;;;1.90;1.10;;;4.90;99.90;;;;;;5053477;28;20041;-71
2022/05/05 00:41:11;;;;;;;6.15;2.22;;;5.00;99.90;;;;;;5052824;28;20064;-71
2022/05/05 00:43:38;;;;;;;3.47;1.23;;;4.90;99.90;;;;;;5051368;28;20066;-71
2022/05/05 00:46:06;;;;;;;6.95;1.67;;;5.00;99.90;;;;;;5051780;28;20041;-72
2022/05/05 00:48:33;;;;;;;6.20;1.20;;;4.90;99.90;;;;;;5048623;28;20110;-72
2022/05/05 00:51:02;;;;;;;2.50;0.82;;;5.00;99.90;;;;;;5031187;28;20044;-72
2022/05/05 00:53:29;;;;;;;1.30;0.75;;;4.90;99.90;;;;;;5031144;28;20071;-71
2022/05/05 00:55:59;;;;;;;1.02;0.93;;;4.90;99.90;;;;;;5031733;28;20065;-72
2022/05/05 00:58:28;;;;;;;1.35;1.25;;;4.80;99.90;;;;;;5031687;28;20064;-71
2022/05/05 01:00:55;;;;;;;1.90;0.85;;;4.90;99.90;;;;;;5035858;28;20052;-71
2022/05/05 01:03:24;;;;;;;1.60;0.60;;;4.80;99.90;;;;;;5050822;28;20194;-72
2022/05/05 01:05:51;;;;;;;3.88;1.33;;;4.80;99.90;;;;;;5052363;28;20080;-71
2022/05/05 01:08:20;;;;;;;2.97;1.23;;;4.80;99.90;;;;;;5051389;28;20048;-72
2022/05/05 01:10:47;;;;;;;4.97;1.58;;;4.70;99.90;;;;;;5052182;28;20080;-71
2022/05/05 01:13:15;;;;;;;3.72;1.02;;;4.70;99.90;;;;;;5049332;28;20056;-71
2022/05/05 01:15:43;;;;;;;2.38;0.88;;;4.70;99.90;;;;;;5052531;28;20055;-71
2022/05/05 01:18:11;;;;;;;7.63;1.33;;;4.70;99.90;;;;;;5051057;28;20056;-71
2022/05/05 01:20:45;;;;;;;6.20;1.30;;;4.70;99.90;;;;;;5048139;28;20045;-71
2022/05/05 01:23:14;;;;;;;9.15;1.90;;;4.70;99.90;;;;;;5039124;28;20394;-71
2022/05/05 01:28:28;;;;;;;6.57;1.27;;;4.70;99.90;;;;;;5031057;28;20148;-71
2022/05/05 01:30:55;;;;;;;7.13;2.15;;;4.80;99.90;;;;;;5045144;28;20099;-72
2022/05/05 01:33:24;;;;;;;17.83;1.95;;;4.80;99.90;;;;;;5052156;28;20164;-70
2022/05/05 01:35:53;;;;;;;13.00;1.98;;;4.80;99.90;;;;;;5048080;28;20057;-71
2022/05/05 01:38:23;;;;;;;12.48;2.20;;;4.80;99.90;;;;;;5032130;28;20049;-71
2022/05/05 01:40:50;;;;;;;7.28;1.65;;;4.80;99.90;;;;;;5051707;28;20045;-71
2022/05/05 01:43:21;;;;;;;7.40;2.35;;;4.80;99.90;;;;;;5031936;28;20082;-71
2022/05/05 01:45:49;;;;;;;4.80;1.60;;;4.80;99.90;;;;;;5030539;28;20045;-72
2022/05/05 01:48:16;;;;;;;10.00;1.48;;;4.90;99.90;;;;;;5029580;28;20075;-71
2022/05/05 01:50:44;;;;;;;8.38;1.27;;;4.80;99.90;;;;;;5031740;28;20099;-70
2022/05/05 01:53:11;;;;;;;15.48;2.58;;;4.90;99.90;;;;;;5030404;28;20057;-71
2022/05/05 01:55:40;;;;;;;9.82;3.22;;;4.90;99.90;;;;;;5047963;28;20057;-72
2022/05/05 01:58:07;;;;;;;8.48;1.70;;;4.90;99.90;;;;;;5039991;28;20123;-78
2022/05/05 02:00:35;;;;;;;7.03;1.33;;;4.90;99.90;;;;;;5033789;28;20583;-78
2022/05/05 02:03:02;;;;;;;12.05;2.58;;;4.90;99.90;;;;;;5033804;28;20055;-78
2022/05/05 02:05:29;;;;;;;3.35;1.52;;;4.90;99.90;;;;;;5050295;28;20135;-77
2022/05/05 02:07:57;;;;;;;8.32;2.03;;;4.80;99.90;;;;;;5050343;28;20064;-77
2022/05/05 02:10:24;;;;;;;11.35;1.50;;;4.90;99.90;;;;;;5051533;28;20143;-77
2022/05/05 02:12:53;;;;;;;14.48;2.05;;;4.80;99.90;;;;;;5051266;28;20064;-77
2022/05/05 02:15:20;;;;;;;11.02;2.35;;;4.80;99.90;;;;;;5048945;28;20049;-77
2022/05/05 02:17:48;;;;;;;8.55;1.30;;;4.80;99.90;;;;;;5051508;28;20152;-76
2022/05/05 02:20:16;;;;;;;5.60;1.38;;;4.80;99.90;;;;;;5051346;28;20057;-76
2022/05/05 02:22:43;;;;;;;10.65;1.23;;;4.80;99.90;;;;;;5051118;28;20053;-77
2022/05/05 02:25:11;;;;;;;6.60;1.50;;;4.80;99.90;;;;;;5049331;28;20053;-71
2022/05/05 02:27:49;;;;;;;8.95;2.05;;;4.80;99.90;;;;;;5036272;28;20060;-71
2022/05/05 02:30:19;;;;;;;4.97;2.13;;;4.80;99.90;;;;;;5051141;28;20072;-71
2022/05/05 02:32:46;;;;;;;7.25;1.17;;;4.90;99.90;;;;;;5012762;28;20148;-71
2022/05/05 02:35:14;;;;;;;5.57;1.10;;;4.90;99.90;;;;;;5031073;28;20054;-71
2022/05/05 02:40:27;;;;;;;4.85;1.25;;;5.00;99.70;;;;;;5050048;28;20065;-71
2022/05/05 02:42:55;;;;;;;4.88;1.73;;;5.00;99.20;;;;;;5040396;28;20069;-71
2022/05/05 02:45:24;;;;;;;12.18;2.15;;;5.10;97.60;;;;;;5030704;28;20046;-71
2022/05/05 02:47:51;;;;;;;9.68;1.95;;;5.20;97.50;;;;;;5030619;28;20457;-72
2022/05/05 02:50:19;;;;;;;5.10;1.63;;;5.20;96.90;;;;;;5030964;28;20045;-71
2022/05/05 02:52:46;;;;;;;8.90;1.60;;;5.30;96.60;;;;;;5031126;28;20049;-71
2022/05/05 02:55:13;;;;;;;9.70;1.52;;;5.30;95.90;;;;;;5029087;28;20112;-71
2022/05/05 02:57:40;;;;;;;5.28;1.50;;;5.40;96.40;;;;;;5034777;28;20041;-71
2022/05/05 03:00:11;;;;;;;5.53;1.55;;;5.50;96.80;;;;;;5038504;28;20052;-71
2022/05/05 03:02:41;;;;;;;4.25;0.93;;;5.50;95.90;;;;;;5049237;28;20045;-71
2022/05/05 03:05:10;;;;;;;7.22;0.70;;;5.60;93.90;;;;;;5049422;28;20045;-71
2022/05/05 03:07:38;;;;;;;3.50;0.60;;;5.60;91.30;;;;;;5049183;28;20045;-71
2022/05/05 03:10:06;;;;;;;5.40;1.20;;;5.70;90.80;;;;;;5036240;28;20473;-71
2022/05/05 03:12:33;;;;;;;7.80;1.08;;;5.70;90.90;;;;;;5050316;28;20068;-72
2022/05/05 03:15:01;;;;;;;2.60;0.80;;;5.70;90.90;;;;;;5046129;28;20045;-71
2022/05/05 03:17:28;;;;;;;2.80;0.75;;;5.70;91.00;;;;;;5032372;28;20052;-71
2022/05/05 03:19:56;;;;;;;4.30;0.70;;;5.70;91.40;;;;;;5032252;28;20056;-71
2022/05/05 03:22:24;;;;;;;2.75;0.77;;;5.70;91.40;;;;;;5033240;28;20524;-72
2022/05/05 03:24:56;;;;;;;4.65;0.80;;;5.80;91.30;;;;;;5051046;28;20057;-71
2022/05/05 03:27:24;;;;;;;2.03;0.80;;;5.70;91.50;;;;;;5049511;28;20136;-72
2022/05/05 03:29:51;;;;;;;3.85;0.98;;;5.70;91.60;;;;;;5050694;28;20057;-77
2022/05/05 03:32:18;;;;;;;1.98;0.63;;;5.80;91.40;;;;;;5031741;28;20100;-77
2022/05/05 03:34:48;;;;;;;1.92;0.82;;;5.80;91.20;;;;;;5047773;28;20053;-78
2022/05/05 03:37:19;;;;;;;5.80;1.15;;;5.80;91.10;;;;;;5050635;28;20061;-77
2022/05/05 03:39:46;;;;;;;4.95;1.35;;;5.80;91.00;;;;;;5046118;28;20041;-76
2022/05/05 03:42:14;;;;;;;0.68;0.60;;;5.90;90.50;;;;;;5061682;28;20049;-76
2022/05/05 03:44:41;;;;;;;3.40;1.27;;;6.00;90.40;;;;;;5031224;28;20536;-76
2022/05/05 03:47:08;;;;;;;4.32;0.65;;;6.00;90.60;;;;;;5054275;28;20049;-77
2022/05/05 03:49:38;;;;;;;2.55;0.52;;;6.00;90.30;;;;;;5053036;28;20052;-77
2022/05/05 03:52:06;;;;;;;1.63;0.68;;;6.10;90.10;;;;;;5052476;28;20586;-78
2022/05/05 03:54:35;;;;;;;1.10;0.63;;;6.20;89.50;;;;;;5035737;28;20051;-76
2022/05/05 03:57:02;;;;;;;8.93;1.10;;;6.20;89.60;;;;;;5033708;28;20076;-76
2022/05/05 03:59:29;;;;;;;0.93;0.82;;;6.20;88.40;;;;;;5048101;28;20095;-77
2022/05/05 04:01:57;;;;;;;6.28;0.60;;;6.20;88.70;;;;;;5052678;28;20056;-76
2022/05/05 04:04:25;;;;;;;3.33;0.80;;;6.30;87.70;;;;;;5043832;28;20124;-77
2022/05/05 04:06:53;;;;;;;4.97;0.70;;;6.30;87.20;;;;;;5042676;28;20057;-77
2022/05/05 04:09:20;;;;;;;1.65;0.75;;;6.40;87.00;;;;;;5045766;28;20127;-76
2022/05/05 04:11:49;;;;;;;2.97;0.93;;;6.40;86.70;;;;;;5038798;28;20133;-78
2022/05/05 04:14:16;;;;;;;4.30;0.80;;;6.50;86.50;;;;;;5044988;28;20048;-77
2022/05/05 04:16:44;;;;;;;1.73;0.85;;;6.50;86.50;;;;;;5049529;28;20467;-76
2022/05/05 04:19:11;;;;;;;0.95;0.50;;;6.70;85.20;;;;;;5043358;28;20144;-70
2022/05/05 04:21:38;;;;;;;6.13;0.80;;;6.80;83.50;;;;;;5046392;28;20487;-72
2022/05/05 04:24:07;;;;;;;4.97;0.65;;;6.80;82.20;;;;;;5046693;28;20041;-74
2022/05/05 04:26:34;;;;;;;5.13;0.85;;;6.90;81.70;;;;;;5040260;28;20049;-79
2022/05/05 04:29:05;;;;;;;6.30;1.23;;;6.90;81.40;;;;;;5069363;28;20045;-79
2022/05/05 04:31:33;;;;;;;3.63;0.88;;;6.90;80.60;;;;;;5065843;28;20041;-79
2022/05/05 04:34:01;;;;;;;2.47;0.75;;;6.90;80.80;;;;;;5047228;28;20076;-72
2022/05/05 04:36:34;;;;;;;0.80;0.75;;;7.00;81.60;;;;;;5016865;28;20151;-73
2022/05/05 04:39:01;;;;;;;;;;;7.10;80.90;;;;;;5038891;28;20429;-73
2022/05/05 04:41:29;;;;;;;4.90;0.68;;;7.30;80.20;;;;;;5051985;28;19987;-73
2022/05/05 04:43:59;;;;;;;3.08;1.00;;;7.40;80.00;;;;;;5051176;28;20045;-78
2022/05/05 04:46:28;;;;;;;6.07;0.70;;;7.40;80.00;;;;;;5047352;28;20216;-73
2022/05/05 04:48:56;;;;;;;1.85;0.93;;;7.50;80.60;;;;;;5035007;28;20068;-72
2022/05/05 04:51:23;;;;;;;3.40;0.93;;;7.60;79.80;;;;;;5052360;28;20139;-73
2022/05/05 04:53:50;;;;;;;5.45;1.10;;;7.70;78.50;;;;;;5053486;28;20417;-80
2022/05/05 04:56:18;;;;;;;2.78;0.85;;;7.80;78.60;;;;;;5035284;28;20049;-73
2022/05/05 04:58:45;;;;;;;4.15;1.42;;;7.90;77.90;;;;;;5050964;28;20033;-73
2022/05/05 05:01:12;;;;;;;2.53;1.05;;;8.00;77.60;;;;;;5051913;28;20053;-72
2022/05/05 05:03:41;;;;;;;3.92;1.05;;;8.10;77.20;;;;;;5025837;28;20048;-72
2022/05/05 05:06:10;;;;;;;1.52;0.70;;;8.00;77.00;;;;;;5048687;28;20127;-71
2022/05/05 05:08:38;;;;;;;5.40;1.10;;;8.00;77.60;;;;;;5033304;28;20437;-70
2022/05/05 05:11:05;;;;;;;5.68;1.20;;;8.10;77.00;;;;;;5031833;28;20139;-70
2022/05/05 05:13:32;;;;;;;4.47;0.93;;;8.10;76.80;;;;;;5036299;28;20461;-77
2022/05/05 05:16:00;;;;;;;3.78;0.90;;;8.20;77.10;;;;;;5039579;28;20055;-77
2022/05/05 05:18:28;;;;;;;4.38;0.85;;;8.30;76.30;;;;;;5044573;28;20501;-73
2022/05/05 05:20:59;;;;;;;3.20;0.90;;;8.30;75.80;;;;;;5033276;28;20060;-78
2022/05/05 05:23:26;;;;;;;1.95;0.85;;;8.40;76.10;;;;;;5033399;28;20135;-78
2022/05/05 05:25:54;;;;;;;2.90;0.90;;;8.70;76.10;;;;;;5052614;28;20111;-78
2022/05/05 05:28:21;;;;;;;5.35;0.98;;;8.90;74.80;;;;;;5052885;28;20098;-79
2022/05/05 05:30:48;;;;;;;2.15;0.98;;;9.10;74.20;;;;;;5051274;28;20041;-77
2022/05/05 05:33:16;;;;;;;3.47;1.30;;;9.20;73.90;;;;;;5052268;28;20041;-78
2022/05/05 05:35:45;;;;;;;1.77;0.90;;;9.20;74.00;;;;;;5051640;28;20076;-78
2022/05/05 05:38:15;;;;;;;4.00;1.02;;;9.40;73.70;;;;;;5034557;28;20424;-78
2022/05/05 05:40:42;;;;;;;4.10;1.15;;;9.30;72.20;;;;;;5052687;28;20081;-72
2022/05/05 05:43:09;;;;;;;4.80;0.88;;;9.30;72.40;;;;;;5050602;28;20501;-72
2022/05/05 05:45:37;;;;;;;3.65;1.00;;;9.20;72.40;;;;;;5050708;28;20091;-72
2022/05/05 05:48:06;;;;;;;5.15;1.35;;;9.30;72.80;;;;;;5050603;28;20094;-73
2022/05/05 05:50:33;;;;;;;4.53;1.50;;;9.40;72.50;;;;;;5051833;28;20049;-70
2022/05/05 05:53:00;;;;;;;8.38;1.70;;;9.50;72.90;;;;;;5048928;28;20519;-71
2022/05/05 05:55:29;;;;;;;8.45;1.90;;;9.60;72.60;;;;;;5045078;28;20103;-71
2022/05/05 05:57:56;;;;;;;4.35;1.15;;;9.80;73.00;;;;;;5048041;28;20461;-71
2022/05/05 06:00:24;;;;;;;3.47;1.30;;;9.90;72.40;;;;;;5040401;28;20041;-72
2022/05/05 06:05:36;;;;;;;3.50;1.10;;;10.30;71.30;;;;;;5030436;28;20053;-73
2022/05/05 06:08:04;;;;;;;2.40;1.50;;;10.70;71.00;;;;;;5012716;28;20045;-74
2022/05/05 06:10:33;;;;;;;6.00;2.08;;;11.30;70.50;;;;;;5030429;28;20464;-72
2022/05/05 06:13:01;;;;;;;5.35;1.58;;;12.00;68.60;;;;;;5040193;28;20110;-79
2022/05/05 06:15:32;;;;;;;2.63;1.50;;;12.60;66.50;;;;;;5051681;28;20043;-78
2022/05/05 06:17:59;;;;;;;4.63;1.80;;;13.10;63.60;;;;;;5052663;28;20049;-79
2022/05/05 06:20:27;;;;;;;9.32;3.85;;;13.20;63.10;;;;;;5043164;28;20044;-79
2022/05/05 06:22:55;;;;;;;2.65;1.45;;;13.20;63.00;;;;;;5039268;28;20046;-80
2022/05/05 06:25:23;;;;;;;4.25;1.60;;;13.00;62.20;;;;;;5049270;28;20410;-79
2022/05/05 06:27:53;;;;;;;5.57;1.52;;;12.70;62.10;;;;;;5050583;28;20056;-79
2022/05/05 06:30:23;;;;;;;5.97;1.55;;;12.20;63.50;;;;;;5045464;28;20102;-80
2022/05/05 06:32:52;;;;;;;9.77;1.30;;;12.10;64.70;;;;;;5035489;28;20120;-81
2022/05/05 06:35:19;;;;;;;4.10;1.60;;;12.10;65.80;;;;;;5036264;28;20053;-81
2022/05/05 06:37:50;;;;;;;5.30;1.98;;;12.10;65.90;;;;;;5049847;28;20037;-79
2022/05/05 06:40:18;;;;;;;3.70;2.08;;;12.20;66.00;;;;;;5043563;28;20128;-80
2022/05/05 06:42:48;;;;;;;8.02;1.67;;;12.20;65.90;;;;;;5023662;28;20053;-78
2022/05/05 06:45:20;;;;;;;7.45;1.65;;;12.30;67.70;;;;;;5044888;28;20053;-80
2022/05/05 06:47:53;;;;;;;5.40;1.57;;;12.60;66.70;;;;;;5048541;28;20033;-74
2022/05/05 06:50:29;;;;;;;5.13;1.38;;;13.00;65.40;;;;;;5029614;28;20311;-74
2022/05/05 06:53:00;;;;;;;2.90;1.33;;;13.30;63.90;;;;;;5019778;28;20148;-72
2022/05/05 06:55:28;;;;;;;3.35;1.40;;;13.20;63.30;;;;;;5051046;28;20103;-75
2022/05/05 06:57:57;;;;;;;3.90;1.27;;;13.00;65.00;;;;;;5049422;28;20041;-73
2022/05/05 07:01:51;;;;;;;8.63;1.77;;;12.90;64.10;;;;;;5049936;28;20048;-74
2022/05/05 07:03:19;;;;;;;4.95;0.93;;;12.90;63.60;;;;;;5049568;28;20048;-73
2022/05/05 07:05:48;;;;;;;2.00;1.63;;;12.70;63.50;;;;;;5049599;28;20071;-74
2022/05/05 07:08:15;;;;;;;3.35;1.48;;;12.70;64.70;;;;;;5031860;28;20514;-74
2022/05/05 07:10:54;;;;;;;7.75;1.30;;;12.80;64.60;;;;;;5032795;28;20053;-75
2022/05/05 07:13:39;;;;;;;5.72;1.38;;;12.80;63.90;;;;;;5051019;28;20094;-76
2022/05/05 07:16:08;;;;;;;4.53;1.08;;;12.80;63.70;;;;;;5032881;28;20049;-74
2022/05/05 07:18:37;;;;;;;1.80;0.95;;;13.00;61.80;;;;;;5049800;28;20044;-75
2022/05/05 07:21:05;;;;;;;2.05;1.02;;;13.30;59.60;;;;;;5053377;28;20056;-73
2022/05/05 07:23:41;;;;;;;2.08;1.60;;;13.40;59.60;;;;;;5054770;28;20548;-74
2022/05/05 07:26:22;;;;;;;2.83;0.93;;;13.30;59.50;;;;;;5049921;28;20047;-77
2022/05/05 07:28:57;;;;;;;3.65;0.88;;;13.10;58.30;;;;;;5053727;28;20440;-80
2022/05/05 07:31:30;;;;;;;5.20;0.80;;;13.30;57.50;;;;;;5039224;28;20398;-74
2022/05/05 07:34:01;;;;;;;4.28;1.00;;;13.80;57.40;;;;;;5037106;28;20055;-80
2022/05/05 07:36:35;;;;;;;5.00;1.10;;;14.50;56.30;;;;;;5052984;28;20079;-70
2022/05/05 07:39:05;;;;;;;5.63;1.55;;;14.60;56.10;;;;;;5055273;28;20049;-75
2022/05/05 07:41:45;;;;;;;6.93;1.30;;;14.60;56.40;;;;;;5054385;28;20045;-76
2022/05/05 07:44:12;;;;;;;3.05;1.50;;;14.80;56.30;;;;;;5045495;28;20413;-73
2022/05/05 07:46:44;;;;;;;2.67;1.10;;;15.00;56.20;;;;;;5039579;28;20049;-74
2022/05/05 07:49:14;;;;;;;2.10;0.98;;;15.30;56.10;;;;;;5052530;28;20053;-74
2022/05/05 07:51:42;;;;;;;3.90;1.80;;;15.70;54.80;;;;;;5055721;28;20053;-79
2022/05/05 07:57:00;;;;;;;2.92;1.20;;;16.40;51.50;;;;;;5047612;28;20044;-83
2022/05/05 07:59:32;;;;;;;4.65;1.38;;;16.40;50.80;;;;;;5060958;28;20080;-74
2022/05/05 08:02:04;;;;;;;6.28;1.67;;;16.50;50.60;;;;;;5053372;28;20076;-76
2022/05/05 08:04:34;;;;;;;3.92;1.52;;;16.60;50.90;;;;;;5037921;28;20049;-75
2022/05/05 08:07:01;;;;;;;1.38;0.85;;;16.50;51.10;;;;;;5032415;28;20045;-74
2022/05/05 08:09:28;;;;;;;3.92;1.10;;;16.50;49.90;;;;;;5019028;28;20073;-74
2022/05/05 08:11:59;;;;;;;6.25;1.55;;;16.30;49.30;;;;;;5040769;28;20052;-74
2022/05/05 08:14:27;;;;;;;5.13;1.27;;;16.30;50.40;;;;;;5031465;28;20055;-74
2022/05/05 08:16:57;;;;;;;2.65;1.20;;;16.10;50.70;;;;;;5052417;28;20102;-79
2022/05/05 08:19:26;;;;;;;7.20;1.80;;;16.00;51.20;;;;;;5047256;28;20140;-74
2022/05/05 08:21:53;;;;;;;3.00;2.72;;;15.90;51.30;;;;;;5036928;28;20054;-75
2022/05/05 08:29:51;;;;;;;4.55;0.90;;;15.40;48.90;;;;;;5045815;28;20052;-75
2022/05/05 08:32:18;;;;;;;4.57;1.10;;;15.30;48.60;;;;;;5051123;28;20048;-74
2022/05/05 08:34:50;;;;;;;2.70;0.88;;;15.40;48.40;;;;;;5041586;28;20046;-73
2022/05/05 08:37:17;;;;;;;3.40;1.58;;;15.40;48.00;;;;;;5038744;28;20045;-74
2022/05/05 08:39:53;;;;;;;2.10;0.93;;;15.30;47.80;;;;;;5052480;28;20052;-74
2022/05/05 08:42:24;;;;;;;6.68;1.77;;;15.20;47.80;;;;;;5049821;28;20492;-74
2022/05/05 08:44:53;;;;;;;1.23;0.80;;;14.90;47.80;;;;;;5039694;28;20063;-77
2022/05/05 08:47:25;;;;;;;2.65;0.98;;;14.80;48.20;;;;;;5041790;28;20132;-81
2022/05/05 08:50:01;;;;;;;1.52;0.85;;;14.70;47.60;;;;;;5036961;28;20111;-81
2022/05/05 08:52:36;;;;;;;1.80;0.65;;;14.40;47.60;;;;;;5042283;28;20524;-79
2022/05/05 08:55:08;;;;;;;1.20;0.80;;;14.40;47.80;;;;;;5045946;28;20049;-79
2022/05/05 08:57:35;;;;;;;2.60;0.80;;;14.50;48.50;;;;;;5030651;28;20041;-80
2022/05/05 09:00:04;;;;;;;3.95;1.25;;;14.60;48.10;;;;;;5050655;28;20049;-79
2022/05/05 09:02:31;;;;;;;3.60;1.00;;;14.60;48.40;;;;;;5046650;28;20052;-74
2022/05/05 09:05:00;;;;;;;6.47;1.33;;;14.60;48.50;;;;;;5028899;28;20063;-74
2022/05/05 09:07:48;;;;;;;7.13;1.20;;;14.60;48.60;;;;;;5030594;28;20140;-75
2022/05/05 09:10:17;;;;;;;3.08;1.13;;;14.40;48.70;;;;;;5048190;28;20087;-74
2022/05/05 09:12:58;;;;;;;2.33;1.20;;;14.20;49.20;;;;;;5044929;28;20044;-75
2022/05/05 09:15:32;;;;;;;3.03;1.20;;;14.00;49.90;;;;;;5036507;28;20516;-75
2022/05/05 09:18:13;;;;;;;4.13;1.27;;;14.20;50.10;;;;;;5041671;28;20771;-74
2022/05/05 09:20:46;;;;;;;3.72;1.77;;;14.30;49.80;;;;;;5049523;28;20087;-76
2022/05/05 09:23:28;;;;;;;3.88;1.85;;;14.70;49.40;;;;;;5048681;28;20148;-83
2022/05/05 09:25:56;;;;;;;5.18;1.45;;;15.10;48.70;;;;;;5034359;28;20057;-83
2022/05/05 09:28:31;;;;;;;11.52;1.50;;;15.30;47.90;;;;;;5038976;28;20080;-82
2022/05/05 09:31:07;;;;;;;7.97;1.70;;;15.50;47.80;;;;;;5031181;28;20045;-82
2022/05/05 09:33:46;;;;;;;5.55;2.08;;;15.60;47.20;;;;;;5048231;28;20052;-84
2022/05/05 09:36:18;;;;;;;5.65;1.50;;;15.80;47.60;;;;;;5053888;28;20067;-83
2022/05/05 09:38:54;;;;;;;4.45;1.42;;;16.00;47.60;;;;;;5023072;28;20044;-80
2022/05/05 09:41:23;;;;;;;5.35;1.38;;;16.30;47.20;;;;;;5050832;28;20077;-80
2022/05/05 09:44:16;;;;;;;2.90;1.00;;;16.60;46.10;;;;;;5054427;28;20072;-81
2022/05/05 09:46:44;;;;;;;5.20;1.02;;;16.80;45.30;;;;;;5047462;28;20057;-80
2022/05/05 09:49:16;;;;;;;6.07;1.20;;;16.60;44.90;;;;;;5052636;28;20144;-82
2022/05/05 09:57:39;;;;;;;5.20;1.20;;;16.60;44.80;;;;;;5052407;28;20080;-82
2022/05/05 09:57:41;;;;;;;4.72;1.00;;;16.70;44.90;;;;;;5033113;28;20053;-83
2022/05/05 10:00:23;;;;;;;2.08;1.10;;;16.60;44.80;;;;;;5043121;28;20050;-82
2022/05/05 10:05:44;;;;;;;5.60;1.70;;;16.70;45.00;;;;;;5051834;28;20049;-82
2022/05/05 10:08:16;;;;;;;4.82;1.38;;;16.40;44.90;;;;;;5043817;28;20106;-83
2022/05/05 10:10:44;;;;;;;6.07;1.77;;;16.00;45.40;;;;;;5072080;28;20214;-81
2022/05/05 10:13:13;;;;;;;1.95;0.98;;;15.70;45.80;;;;;;5047491;28;20045;-82
2022/05/05 10:15:42;;;;;;;5.07;1.30;;;15.30;46.40;;;;;;5045794;28;20044;-83
2022/05/05 10:18:12;;;;;;;5.60;1.50;;;15.20;47.30;;;;;;5041705;28;20053;-75
2022/05/05 10:20:39;;;;;;;15.75;1.90;;;15.50;46.80;;;;;;5041090;28;20059;-76
2022/05/05 10:23:14;;;;;;;10.25;0.98;;;15.70;47.10;;;;;;5042235;28;20052;-84
2022/05/05 10:25:42;;;;;;;1.15;0.85;;;15.70;46.80;;;;;;5041720;28;20057;-84
2022/05/05 10:28:40;;;;;;;1.90;1.30;;;15.60;46.40;;;;;;5060615;28;20505;-80
2022/05/05 10:31:12;;;;;;;4.22;1.02;;;15.50;46.40;;;;;;5045473;28;20053;-82
2022/05/05 10:34:14;;;;;;;5.20;1.05;;;15.70;46.70;;;;;;5045342;28;20053;-82
2022/05/05 10:36:59;;;;;;;2.60;0.70;;;16.00;46.30;;;;;;4970848;28;20046;-83
2022/05/05 10:39:45;;;;;;;2.53;0.68;;;16.60;45.60;;;;;;5041976;28;20114;-83
2022/05/05 10:42:44;;;;;;;3.40;0.80;;;17.30;45.10;;;;;;5043160;28;20068;-84
2022/05/05 10:45:31;;;;;;;3.88;1.10;;;17.60;43.80;;;;;;5016337;28;20055;-75
2022/05/05 10:48:30;;;;;;;7.68;0.95;;;17.20;44.10;;;;;;5035895;28;20060;-75
2022/05/05 10:51:07;;;;;;;2.95;1.00;;;16.90;44.90;;;;;;5036902;28;20076;-73
2022/05/05 10:53:39;;;;;;;5.22;1.20;;;16.70;45.80;;;;;;5038252;28;20048;-74
2022/05/05 10:56:28;;;;;;;1.80;0.88;;;16.80;45.50;;;;;;5038528;28;20143;-75
2022/05/05 10:59:04;;;;;;;7.47;1.00;;;16.80;44.80;;;;;;5029568;28;20053;-76
2022/05/05 11:01:47;;;;;;;4.45;0.63;;;16.60;44.80;;;;;;5044748;28;20050;-75
2022/05/05 11:04:33;;;;;;;2.83;1.23;;;16.10;45.20;;;;;;5027392;28;20140;-74
2022/05/05 11:07:31;;;;;;;3.00;0.88;;;15.70;46.10;;;;;;5035465;28;20387;-73
2022/05/05 11:10:01;;;;;;;16.80;1.27;;;15.70;47.00;;;;;;5036607;28;20114;-74
2022/05/05 11:12:35;;;;;;;6.75;1.50;;;15.70;46.70;;;;;;5041744;28;20087;-75
2022/05/05 11:23:45;;;;;;;4.18;0.70;;;15.70;46.60;;;;;;5029462;28;20053;-75
2022/05/05 11:26:17;;;;;;;6.03;0.80;;;15.80;47.00;;;;;;5033534;28;20049;-75
2022/05/05 11:28:47;;;;;;;3.83;1.20;;;15.70;45.90;;;;;;5041053;28;20122;-75
2022/05/05 11:31:31;;;;;;;2.65;0.50;;;15.70;46.00;;;;;;5030010;28;20149;-75
2022/05/05 11:34:01;;;;;;;2.53;0.70;;;15.90;45.60;;;;;;5028838;28;20060;-76
2022/05/05 11:36:29;;;;;;;4.25;0.93;;;16.40;45.20;;;;;;5030012;28;20053;-76
2022/05/05 11:38:59;;;;;;;4.40;0.80;;;16.80;44.90;;;;;;5049211;28;20412;-76
2022/05/05 11:41:29;;;;;;;2.42;1.05;;;17.40;44.20;;;;;;5041163;28;20563;-75
2022/05/05 11:44:14;;;;;;;2.88;0.82;;;17.90;44.20;;;;;;5032284;28;20060;-75
2022/05/05 11:46:44;;;;;;;2.50;0.88;;;18.20;43.10;;;;;;5037069;28;20493;-74
2022/05/05 11:49:12;;;;;;;3.22;0.73;;;18.50;41.60;;;;;;5046729;28;20060;-74
2022/05/05 11:51:40;;;;;;;1.27;0.70;;;18.20;42.20;;;;;;5030175;28;20049;-75
2022/05/05 11:54:10;;;;;;;4.53;0.80;;;17.80;42.20;;;;;;5028728;28;20517;-75
2022/05/05 11:56:38;;;;;;;5.18;0.65;;;17.30;42.90;;;;;;5047246;28;20118;-74
2022/05/05 12:02:06;;;;;;;5.30;0.90;;;16.40;43.20;;;;;;5028607;28;20083;-74
2022/05/05 12:04:36;;;;;;;2.70;1.13;;;16.10;44.10;;;;;;5037548;28;20077;-74
2022/05/05 12:07:03;;;;;;;3.35;0.95;;;16.10;43.90;;;;;;5040307;28;20048;-74
2022/05/05 12:09:31;;;;;;;2.30;1.17;;;15.90;44.00;;;;;;5060423;28;20056;-74
2022/05/05 12:12:10;;;;;;;3.92;0.90;;;15.70;44.60;;;;;;5051366;28;20053;-73
2022/05/05 12:14:46;;;;;;;5.03;0.98;;;15.60;45.00;;;;;;5050965;28;20292;-73
2022/05/05 12:17:18;;;;;;;5.97;0.80;;;15.50;44.90;;;;;;5048139;28;20049;-72
2022/05/05 12:19:48;;;;;;;4.90;0.95;;;15.40;44.60;;;;;;5036043;28;20079;-72
2022/05/05 12:22:22;;;;;;;2.17;0.70;;;15.60;45.00;;;;;;5049817;28;20108;-73
2022/05/05 12:24:50;;;;;;;3.40;1.17;;;16.00;44.00;;;;;;5051055;28;20415;-74
2022/05/05 12:27:22;;;;;;;5.70;0.68;;;16.20;43.30;;;;;;5035167;28;20044;-79
2022/05/05 12:29:51;;;;;;;4.72;0.90;;;16.20;43.30;;;;;;5052998;28;20053;-80
2022/05/05 12:32:21;;;;;;;2.38;0.45;;;16.10;43.10;;;;;;5049154;28;21101;-81
2022/05/05 12:34:48;;;;;;;4.13;0.93;;;16.00;43.40;;;;;;5051662;28;20534;-72
2022/05/05 12:37:17;;;;;;;10.15;1.35;;;16.00;43.00;;;;;;5027048;28;20045;-81
2022/05/05 12:39:53;;;;;;;4.05;1.13;;;16.20;43.40;;;;;;5052553;28;20045;-77
2022/05/05 12:42:25;;;;;;;1.80;0.73;;;16.70;42.50;;;;;;5045312;28;20041;-73
2022/05/05 12:44:54;;;;;;;3.30;0.90;;;17.20;42.10;;;;;;5027945;28;20107;-78
2022/05/05 12:47:23;;;;;;;4.07;0.70;;;17.50;41.30;;;;;;5049197;28;20055;-73
2022/05/05 12:49:52;;;;;;;5.47;0.82;;;18.00;40.90;;;;;;5036152;28;20080;-81
2022/05/05 13:01:02;;;;;;;6.63;0.88;;;19.30;38.80;;;;;;5033155;28;20088;-73
2022/05/05 13:03:30;;;;;;;4.70;0.73;;;19.40;38.60;;;;;;5041713;28;20513;-80
2022/05/05 13:05:59;;;;;;;4.60;1.02;;;19.20;38.90;;;;;;5058809;28;20116;-79
2022/05/05 13:08:26;;;;;;;4.57;1.35;;;19.30;39.20;;;;;;5048620;28;20118;-79
2022/05/05 13:10:54;;;;;;;2.05;0.90;;;19.00;38.90;;;;;;5046724;28;20049;-79
2022/05/05 13:13:24;;;;;;;2.58;0.93;;;18.50;39.20;;;;;;5047024;28;20045;-81
2022/05/05 13:15:51;;;;;;;5.90;1.13;;;18.00;40.00;;;;;;5045560;28;20049;-79
2022/05/05 13:18:20;;;;;;;5.75;1.00;;;17.90;40.60;;;;;;5039831;28;20049;-83
2022/05/05 13:20:47;;;;;;;3.15;1.23;;;17.70;40.50;;;;;;5043803;28;20044;-80
2022/05/05 13:23:14;;;;;;;1.88;1.30;;;17.30;41.60;;;;;;5059839;28;20059;-79
2022/05/05 13:25:43;;;;;;;1.00;0.77;;;16.90;41.40;;;;;;5034439;28;20098;-82
2022/05/05 13:28:10;;;;;;;3.13;0.80;;;16.50;42.20;;;;;;5060943;28;20505;-83
2022/05/05 13:30:38;;;;;;;2.45;0.90;;;16.10;42.80;;;;;;5053432;28;21254;-81
2022/05/05 13:33:08;;;;;;;6.05;1.10;;;15.80;43.20;;;;;;5041951;28;20065;-74
2022/05/05 13:35:37;;;;;;;6.13;0.85;;;15.60;43.60;;;;;;5037094;28;20049;-80
2022/05/05 13:38:05;;;;;;;3.13;1.88;;;15.40;44.10;;;;;;5042612;28;20100;-82
2022/05/05 13:40:32;;;;;;;4.85;1.83;;;15.20;44.40;;;;;;5038044;28;20056;-82
2022/05/05 13:43:01;;;;;;;3.28;0.63;;;15.00;45.50;;;;;;5030160;28;20517;-81
2022/05/05 13:45:29;;;;;;;5.80;1.13;;;14.90;45.30;;;;;;5042245;28;20493;-82
2022/05/05 13:47:58;;;;;;;2.65;1.00;;;14.80;45.30;;;;;;5050726;28;20053;-81
2022/05/05 13:50:28;;;;;;;4.88;0.70;;;14.70;45.60;;;;;;5039548;28;20053;-81
2022/05/05 13:52:58;;;;;;;3.60;0.75;;;14.70;45.60;;;;;;5050428;28;20057;-81
2022/05/05 13:55:28;;;;;;;4.18;1.20;;;14.70;45.70;;;;;;5019945;28;20429;-83